createdAt,value
2022-10-15T00:02:52.765Z,24.60
2022-10-15T00:06:18.358Z,21.95
2022-10-15T00:09:40.069Z,23.80
2022-10-15T00:16:29.834Z,23.35
2022-10-15T00:19:51.188Z,26.73
2022-10-15T00:23:14.213Z,26.42
2022-10-15T00:26:35.529Z,24.55
2022-10-15T00:30:00.112Z,24.73
2022-10-15T00:33:22.931Z,21.70
2022-10-15T00:36:44.549Z,22.88
2022-10-15T00:40:09.625Z,27.40
2022-10-15T00:43:42.827Z,24.30
2022-10-15T00:47:08.447Z,21.08
2022-10-15T00:50:29.936Z,25.50
2022-10-15T00:53:51.776Z,24.15
2022-10-15T00:57:15.564Z,21.38
2022-10-15T01:00:38.166Z,24.38
2022-10-15T01:04:00.306Z,22.55
2022-10-15T01:07:21.879Z,25.10
2022-10-15T01:10:51.676Z,22.95
2022-10-15T01:14:29.592Z,23.00
2022-10-15T01:17:57.283Z,24.27
2022-10-15T01:21:26.505Z,27.55
2022-10-15T01:25:03.421Z,22.38
2022-10-15T01:28:40.684Z,22.55
2022-10-15T01:32:09.767Z,23.65
2022-10-15T01:35:43.614Z,26.77
2022-10-15T01:39:13.731Z,24.63
2022-10-15T01:42:41.664Z,26.35
2022-10-15T01:46:07.741Z,24.08
2022-10-15T01:49:56.732Z,24.73
2022-10-15T01:53:26.277Z,26.23
2022-10-15T01:56:51.373Z,23.48
2022-10-15T02:00:15.664Z,24.75
2022-10-15T02:03:46.030Z,28.73
2022-10-15T02:07:15.272Z,26.83
2022-10-15T02:10:48.799Z,22.83
2022-10-15T02:14:16.439Z,26.10
2022-10-15T02:17:42.142Z,27.67
2022-10-15T02:21:10.549Z,25.30
2022-10-15T02:24:38.458Z,25.75
2022-10-15T02:28:01.457Z,27.40
2022-10-15T02:31:24.872Z,26.60
2022-10-15T02:34:47.764Z,25.15
2022-10-15T02:41:41.415Z,23.63
2022-10-15T02:45:08.511Z,27.17
2022-10-15T02:48:30.173Z,28.55
2022-10-15T02:51:52.033Z,25.83
2022-10-15T02:55:13.849Z,27.38
2022-10-15T02:58:37.496Z,27.15
2022-10-15T03:01:59.346Z,27.27
2022-10-15T03:05:21.775Z,28.05
2022-10-15T03:08:44.375Z,26.27
2022-10-15T03:12:06.485Z,26.45
2022-10-15T03:15:32.027Z,24.45
2022-10-15T03:18:53.228Z,30.70
2022-10-15T03:22:15.968Z,29.33
2022-10-15T03:25:43.732Z,27.48
2022-10-15T03:29:07.487Z,25.80
2022-10-15T03:32:55.026Z,25.73
2022-10-15T03:36:16.908Z,27.73
2022-10-15T03:39:38.818Z,27.70
2022-10-15T03:43:02.407Z,26.85
2022-10-15T03:46:24.106Z,25.10
2022-10-15T03:49:47.226Z,27.73
2022-10-15T03:53:08.813Z,26.42
2022-10-15T03:56:30.415Z,25.08
2022-10-15T04:00:09.891Z,23.65
2022-10-15T04:03:34.469Z,24.02
2022-10-15T04:06:57.449Z,25.63
2022-10-15T04:10:19.264Z,27.48
2022-10-15T04:13:40.929Z,23.40
2022-10-15T04:17:03.271Z,22.75
2022-10-15T04:20:25.181Z,22.70
2022-10-15T04:23:48.037Z,24.95
2022-10-15T04:27:17.291Z,28.90
2022-10-15T04:30:38.864Z,26.58
2022-10-15T04:34:03.607Z,26.10
2022-10-15T04:37:25.434Z,24.48
2022-10-15T04:40:49.793Z,28.67
2022-10-15T04:44:11.891Z,27.33
2022-10-15T04:47:34.237Z,24.98
2022-10-15T04:51:10.473Z,22.65
2022-10-15T04:54:59.168Z,25.02
2022-10-15T04:58:22.040Z,24.67
2022-10-15T05:01:44.237Z,26.45
2022-10-15T05:05:06.903Z,26.60
2022-10-15T05:08:32.965Z,25.05
2022-10-15T05:12:04.131Z,26.50
2022-10-15T05:15:28.248Z,31.85
2022-10-15T05:18:52.121Z,26.00
2022-10-15T05:22:13.687Z,29.52
2022-10-15T05:25:42.063Z,28.23
2022-10-15T05:29:04.094Z,27.77
2022-10-15T05:32:27.817Z,27.17
2022-10-15T05:35:49.264Z,28.20
2022-10-15T05:39:12.310Z,29.17
2022-10-15T05:42:38.625Z,26.95
2022-10-15T05:46:00.810Z,28.08
2022-10-15T05:49:23.341Z,28.55
2022-10-15T05:52:52.734Z,28.45
2022-10-15T05:56:34.526Z,27.10
2022-10-15T05:59:56.156Z,27.05
2022-10-15T06:03:17.391Z,25.92
2022-10-15T06:06:40.485Z,26.92
2022-10-15T06:10:01.739Z,26.15
2022-10-15T06:13:28.357Z,27.90
2022-10-15T06:16:50.777Z,24.67
2022-10-15T06:20:13.153Z,29.17
2022-10-15T06:23:36.823Z,28.50
2022-10-15T06:26:59.614Z,24.90
2022-10-15T06:30:21.943Z,25.25
2022-10-15T06:33:43.673Z,23.73
2022-10-15T06:37:05.487Z,27.35
2022-10-15T06:40:28.237Z,21.90
2022-10-15T06:43:50.548Z,24.25
2022-10-15T06:47:12.007Z,24.92
2022-10-15T06:50:33.543Z,23.92
2022-10-15T06:53:55.235Z,21.52
2022-10-15T06:57:17.738Z,21.77
2022-10-15T07:00:39.128Z,22.30
2022-10-15T07:04:00.861Z,20.50
2022-10-15T07:07:22.179Z,23.63
2022-10-15T07:10:43.975Z,24.35
2022-10-15T07:14:06.663Z,20.95
2022-10-15T07:17:30.824Z,20.80
2022-10-15T07:20:52.523Z,22.98
2022-10-15T07:24:14.257Z,19.77
2022-10-15T07:27:35.539Z,19.83
2022-10-15T07:31:08.278Z,23.13
2022-10-15T07:34:32.271Z,24.05
2022-10-15T07:37:53.594Z,21.52
2022-10-15T07:41:15.194Z,21.98
2022-10-15T07:44:39.593Z,25.80
2022-10-15T07:48:07.093Z,20.73
2022-10-15T07:51:28.719Z,29.35
2022-10-15T07:54:50.023Z,22.27
2022-10-15T07:58:13.753Z,24.45
2022-10-15T08:01:35.483Z,22.50
2022-10-15T08:04:58.539Z,21.10
2022-10-15T08:08:20.916Z,23.08
2022-10-15T08:11:42.048Z,22.08
2022-10-15T08:15:04.482Z,19.20
2022-10-15T08:18:26.069Z,19.60
2022-10-15T08:21:48.763Z,20.20
2022-10-15T08:25:10.543Z,20.35
2022-10-15T08:28:34.159Z,18.95
2022-10-15T08:31:55.642Z,16.63
2022-10-15T08:35:18.548Z,16.83
2022-10-15T08:38:41.351Z,17.02
2022-10-15T08:42:05.506Z,18.73
2022-10-15T08:45:32.554Z,16.10
2022-10-15T08:48:57.389Z,16.65
2022-10-15T08:52:26.622Z,17.08
2022-10-15T08:55:51.576Z,18.48
2022-10-15T08:59:26.095Z,20.88
2022-10-15T09:02:56.007Z,17.75
2022-10-15T09:06:22.965Z,16.77
2022-10-15T09:09:52.282Z,16.77
2022-10-15T09:13:21.861Z,19.45
2022-10-15T09:16:45.574Z,18.35
2022-10-15T09:20:15.670Z,18.25
2022-10-15T09:23:38.984Z,19.85
2022-10-15T09:27:07.895Z,16.50
2022-10-15T09:30:38.718Z,17.23
2022-10-15T09:34:06.447Z,20.48
2022-10-15T09:37:33.847Z,20.63
2022-10-15T09:41:16.718Z,14.77
2022-10-15T09:44:42.894Z,20.48
2022-10-15T09:48:16.808Z,18.70
2022-10-15T09:51:45.093Z,20.73
2022-10-15T09:55:14.510Z,16.35
2022-10-15T09:58:43.720Z,18.83
2022-10-15T10:02:18.304Z,15.07
2022-10-15T10:05:41.789Z,15.77
2022-10-15T10:09:03.429Z,19.67
2022-10-15T10:12:29.473Z,15.55
2022-10-15T10:15:58.267Z,13.25
2022-10-15T10:19:21.260Z,15.98
2022-10-15T10:22:50.435Z,15.52
2022-10-15T10:26:14.611Z,17.63
2022-10-15T10:29:43.903Z,20.15
2022-10-15T10:33:06.655Z,19.30
2022-10-15T10:36:30.748Z,14.88
2022-10-15T10:39:59.688Z,13.27
2022-10-15T10:43:27.661Z,15.90
2022-10-15T10:47:03.464Z,12.57
2022-10-15T10:50:32.037Z,13.35
2022-10-15T10:53:56.472Z,12.35
2022-10-15T10:57:28.742Z,12.68
2022-10-15T11:00:53.439Z,11.85
2022-10-15T11:04:25.464Z,10.82
2022-10-15T11:07:54.368Z,10.60
2022-10-15T11:11:23.271Z,11.60
2022-10-15T11:14:54.416Z,8.38
2022-10-15T11:18:34.357Z,9.95
2022-10-15T11:22:08.985Z,10.13
2022-10-15T11:25:39.995Z,9.10
2022-10-15T11:29:12.592Z,9.25
2022-10-15T11:33:06.280Z,8.75
2022-10-15T11:36:37.758Z,14.43
2022-10-15T11:40:15.952Z,11.93
2022-10-15T11:43:48.363Z,10.32
2022-10-15T11:47:27.375Z,12.15
2022-10-15T11:50:53.610Z,10.15
2022-10-15T11:54:28.172Z,10.05
2022-10-15T11:57:59.006Z,12.27
2022-10-15T12:01:25.130Z,9.43
2022-10-15T12:04:51.101Z,12.48
2022-10-15T12:08:15.139Z,9.15
2022-10-15T12:11:46.702Z,9.25
2022-10-15T12:15:27.766Z,9.27
2022-10-15T12:18:56.355Z,10.45
2022-10-15T12:22:34.354Z,8.05
2022-10-15T12:25:57.665Z,9.07
2022-10-15T12:29:23.047Z,14.05
2022-10-15T12:32:46.452Z,9.35
2022-10-15T12:36:21.462Z,10.95
2022-10-15T12:39:52.492Z,7.93
2022-10-15T12:43:18.532Z,8.48
2022-10-15T12:46:42.269Z,7.28
2022-10-15T12:50:06.393Z,10.90
2022-10-15T12:53:34.320Z,11.95
2022-10-15T12:56:55.788Z,10.93
2022-10-15T13:00:50.128Z,9.20
2022-10-15T13:04:13.365Z,7.30
2022-10-15T13:07:37.652Z,7.45
2022-10-15T13:11:01.481Z,7.97
2022-10-15T13:14:33.531Z,8.73
2022-10-15T13:17:57.112Z,8.45
2022-10-15T13:21:19.666Z,8.93
2022-10-15T13:24:45.455Z,6.65
2022-10-15T13:28:29.782Z,6.82
2022-10-15T13:31:52.203Z,7.55
2022-10-15T13:35:18.906Z,6.97
2022-10-15T13:38:46.497Z,7.28
2022-10-15T13:42:11.193Z,7.20
2022-10-15T13:45:33.738Z,7.53
2022-10-15T13:49:00.393Z,7.30
2022-10-15T13:52:22.903Z,5.65
2022-10-15T13:55:49.535Z,6.22
2022-10-15T13:59:17.184Z,5.70
2022-10-15T14:02:38.470Z,5.50
2022-10-15T14:06:13.048Z,6.38
2022-10-15T14:09:36.703Z,4.78
2022-10-15T14:12:59.758Z,8.05
2022-10-15T14:16:22.994Z,7.38
2022-10-15T14:20:02.086Z,6.18
2022-10-15T14:23:32.698Z,5.00
2022-10-15T14:26:54.120Z,8.00
2022-10-15T14:30:25.676Z,5.47
2022-10-15T14:33:47.435Z,5.88
2022-10-15T14:37:40.191Z,6.72
2022-10-15T14:41:06.527Z,3.70
2022-10-15T14:44:42.112Z,4.35
2022-10-15T14:48:11.127Z,3.20
2022-10-15T14:51:33.227Z,3.25
2022-10-15T14:55:03.370Z,5.90
2022-10-15T14:58:27.616Z,5.45
2022-10-15T15:01:57.160Z,3.45
2022-10-15T15:05:25.236Z,5.47
2022-10-15T15:08:47.468Z,6.40
2022-10-15T15:12:17.371Z,3.70
2022-10-15T15:15:42.130Z,5.53
2022-10-15T15:19:03.744Z,7.57
2022-10-15T15:22:30.928Z,4.15
2022-10-15T15:25:53.045Z,4.25
2022-10-15T15:29:14.888Z,4.25
2022-10-15T15:32:36.526Z,4.03
2022-10-15T15:36:02.830Z,3.35
2022-10-15T15:39:25.769Z,4.47
2022-10-15T15:42:48.936Z,4.10
2022-10-15T15:46:10.834Z,3.70
2022-10-15T15:49:32.174Z,4.60
2022-10-15T15:52:53.905Z,4.25
2022-10-15T15:56:16.625Z,3.22
2022-10-15T15:59:38.361Z,3.38
2022-10-15T16:02:59.835Z,8.00
2022-10-15T16:06:21.595Z,4.38
2022-10-15T16:09:43.085Z,5.45
2022-10-15T16:13:06.170Z,3.85
2022-10-15T16:16:28.412Z,5.45
2022-10-15T16:19:49.673Z,3.15
2022-10-15T16:23:13.010Z,3.72
2022-10-15T16:26:34.543Z,3.60
2022-10-15T16:29:57.812Z,4.85
2022-10-15T16:33:19.151Z,3.17
2022-10-15T16:36:41.099Z,4.32
2022-10-15T16:40:02.828Z,3.65
2022-10-15T16:43:24.456Z,3.30
2022-10-15T16:46:47.526Z,4.47
2022-10-15T16:50:12.161Z,6.45
2022-10-15T16:53:34.343Z,3.55
2022-10-15T16:56:56.127Z,5.72
2022-10-15T17:00:17.894Z,5.63
2022-10-15T17:03:42.163Z,6.35
2022-10-15T17:07:03.832Z,4.68
2022-10-15T17:10:25.844Z,6.30
2022-10-15T17:13:48.538Z,7.32
2022-10-15T17:17:10.384Z,9.52
2022-10-15T17:20:34.563Z,7.43
2022-10-15T17:23:58.683Z,8.57
2022-10-15T17:27:19.858Z,8.18
2022-10-15T17:30:41.083Z,7.38
2022-10-15T17:34:04.953Z,8.63
2022-10-15T17:37:27.662Z,6.07
2022-10-15T17:40:49.329Z,7.25
2022-10-15T17:44:11.756Z,6.85
2022-10-15T17:47:33.389Z,7.80
2022-10-15T17:50:54.728Z,8.05
2022-10-15T17:54:17.485Z,8.90
2022-10-15T17:57:38.900Z,9.48
2022-10-15T18:01:00.547Z,12.75
2022-10-15T18:04:22.236Z,14.82
2022-10-15T18:07:43.979Z,9.48
2022-10-15T18:11:07.276Z,12.70
2022-10-15T18:14:28.801Z,13.60
2022-10-15T18:17:50.333Z,13.20
2022-10-15T18:21:12.950Z,13.02
2022-10-15T18:24:34.075Z,14.77
2022-10-15T18:28:01.179Z,13.15
2022-10-15T18:31:25.075Z,11.38
2022-10-15T18:34:47.049Z,16.27
2022-10-15T18:38:08.766Z,11.48
2022-10-15T18:41:35.739Z,14.38
2022-10-15T18:44:58.844Z,13.80
2022-10-15T18:48:20.548Z,12.90
2022-10-15T18:51:41.925Z,11.98
2022-10-15T18:55:03.645Z,16.95
2022-10-15T18:58:25.234Z,16.25
2022-10-15T19:01:49.387Z,12.13
2022-10-15T19:05:10.888Z,14.40
2022-10-15T19:08:32.241Z,14.13
2022-10-15T19:11:55.513Z,14.88
2022-10-15T19:15:17.586Z,13.65
2022-10-15T19:18:40.131Z,11.68
2022-10-15T19:22:02.024Z,13.98
2022-10-15T19:25:23.614Z,15.18
2022-10-15T19:28:44.994Z,12.75
2022-10-15T19:32:07.094Z,12.63
2022-10-15T19:35:29.983Z,11.63
2022-10-15T19:38:51.319Z,12.45
2022-10-15T19:42:12.690Z,13.43
2022-10-15T19:45:38.142Z,10.75
2022-10-15T19:48:59.560Z,10.02
2022-10-15T19:52:22.287Z,8.77
2022-10-15T19:55:58.751Z,8.02
2022-10-15T19:59:20.533Z,8.82
2022-10-15T20:02:42.200Z,10.07
2022-10-15T20:06:03.757Z,7.18
2022-10-15T20:09:26.664Z,6.90
2022-10-15T20:12:48.334Z,7.18
2022-10-15T20:16:14.053Z,8.75
2022-10-15T20:19:35.581Z,6.55
2022-10-15T20:22:57.202Z,6.32
2022-10-15T20:26:20.231Z,8.70
2022-10-15T20:29:42.004Z,6.53
2022-10-15T20:33:03.254Z,8.85
2022-10-15T20:36:27.241Z,6.82
2022-10-15T20:39:48.855Z,6.13
2022-10-15T20:43:11.914Z,6.95
2022-10-15T20:46:38.048Z,7.45
2022-10-15T20:49:59.601Z,6.75
2022-10-15T20:53:22.725Z,6.00
2022-10-15T20:56:44.264Z,5.63
2022-10-15T21:00:09.481Z,6.03
2022-10-15T21:03:30.998Z,6.70
2022-10-15T21:06:52.599Z,5.88
2022-10-15T21:10:14.407Z,5.03
2022-10-15T21:13:36.456Z,5.75
2022-10-15T21:16:59.285Z,6.07
2022-10-15T21:20:21.184Z,8.35
2022-10-15T21:23:43.882Z,4.65
2022-10-15T21:27:05.987Z,5.25
2022-10-15T21:30:27.430Z,4.97
2022-10-15T21:33:50.930Z,5.82
2022-10-15T21:37:12.707Z,3.85
2022-10-15T21:40:34.310Z,4.40
2022-10-15T21:43:56.630Z,5.80
2022-10-15T21:47:18.443Z,5.53
2022-10-15T21:50:41.447Z,7.18
2022-10-15T21:54:04.626Z,5.15
2022-10-15T21:57:26.318Z,5.63
2022-10-15T22:00:48.364Z,4.65
2022-10-15T22:04:11.973Z,4.10
2022-10-15T22:07:38.344Z,4.97
2022-10-15T22:11:12.783Z,6.32
2022-10-15T22:14:34.073Z,5.38
2022-10-15T22:17:55.401Z,4.63
2022-10-15T22:21:19.310Z,5.25
2022-10-15T22:24:42.589Z,5.30
2022-10-15T22:28:04.310Z,4.90
2022-10-15T22:31:26.914Z,6.03
2022-10-15T22:34:48.909Z,6.35
2022-10-15T22:38:10.621Z,4.55
2022-10-15T22:41:35.768Z,6.63
2022-10-15T22:44:57.132Z,5.75
2022-10-15T22:48:18.508Z,4.90
2022-10-15T22:51:39.832Z,5.03
2022-10-15T22:55:01.691Z,5.70
2022-10-15T22:58:26.140Z,5.40
2022-10-15T23:01:47.407Z,4.07
2022-10-15T23:05:12.684Z,6.20
2022-10-15T23:08:35.342Z,5.68
2022-10-15T23:11:56.857Z,5.72
2022-10-15T23:15:19.444Z,3.75
2022-10-15T23:18:41.198Z,7.93
2022-10-15T23:22:03.425Z,4.25
2022-10-15T23:25:24.917Z,5.00
2022-10-15T23:28:50.893Z,4.70
2022-10-15T23:32:13.797Z,12.32
2022-10-15T23:38:59.493Z,6.50
2022-10-15T23:42:20.991Z,4.53
2022-10-15T23:45:42.600Z,4.63
2022-10-15T23:49:06.001Z,5.68
2022-10-15T23:52:27.569Z,6.70
2022-10-15T23:55:49.375Z,4.13
2022-10-15T23:59:11.113Z,4.13
